createdAt,value
2022-08-04T00:03:28.106Z,60.30
2022-08-04T00:07:18.954Z,60.40
2022-08-04T00:11:01.460Z,61.20
2022-08-04T00:14:51.402Z,60.70
2022-08-04T00:18:42.016Z,61.50
2022-08-04T00:22:28.553Z,61.60
2022-08-04T00:26:11.139Z,61.00
2022-08-04T00:29:53.325Z,60.70
2022-08-04T00:33:35.665Z,60.70
2022-08-04T00:37:21.124Z,60.80
2022-08-04T00:41:18.723Z,60.80
2022-08-04T00:45:18.833Z,61.80
2022-08-04T00:49:03.493Z,61.90
2022-08-04T00:53:17.360Z,61.40
2022-08-04T00:57:33.613Z,61.40
2022-08-04T01:01:32.773Z,62.00
2022-08-04T01:05:38.743Z,63.10
2022-08-04T01:09:40.114Z,63.10
2022-08-04T01:13:40.470Z,61.90
2022-08-04T01:17:25.944Z,63.80
2022-08-04T01:21:52.403Z,61.90
2022-08-04T01:26:43.348Z,63.60
2022-08-04T01:30:20.015Z,64.00
2022-08-04T01:34:05.668Z,62.40
2022-08-04T01:38:20.093Z,62.70
2022-08-04T01:42:05.870Z,63.50
2022-08-04T01:45:58.038Z,62.80
2022-08-04T01:49:42.119Z,63.00
2022-08-04T01:53:30.211Z,62.90
2022-08-04T01:57:38.636Z,63.10
2022-08-04T02:01:14.136Z,63.10
2022-08-04T02:04:56.348Z,63.20
2022-08-04T02:09:10.246Z,63.20
2022-08-04T02:13:16.657Z,65.10
2022-08-04T02:16:58.474Z,64.20
2022-08-04T02:20:46.619Z,63.40
2022-08-04T02:24:31.771Z,63.90
2022-08-04T02:28:17.151Z,63.70
2022-08-04T02:32:07.209Z,64.00
2022-08-04T02:35:55.438Z,64.70
2022-08-04T02:39:41.486Z,64.20
2022-08-04T02:43:51.931Z,63.90
2022-08-04T02:48:19.349Z,64.10
2022-08-04T02:51:40.813Z,64.20
2022-08-04T02:55:23.677Z,64.40
2022-08-04T02:59:09.399Z,64.40
2022-08-04T03:03:18.871Z,64.60
2022-08-04T03:07:19.759Z,65.50
2022-08-04T03:11:22.893Z,66.00
2022-08-04T03:15:13.620Z,66.00
2022-08-04T03:19:14.281Z,64.80
2022-08-04T03:23:23.765Z,66.40
2022-08-04T03:27:39.074Z,65.90
2022-08-04T03:31:29.823Z,66.60
2022-08-04T03:35:29.604Z,65.10
2022-08-04T03:39:49.940Z,65.20
2022-08-04T03:44:10.365Z,66.60
2022-08-04T03:48:09.459Z,66.40
2022-08-04T03:52:35.055Z,65.80
2022-08-04T03:56:45.409Z,66.20
2022-08-04T04:00:39.954Z,65.50
2022-08-04T04:05:09.066Z,65.80
2022-08-04T04:09:28.738Z,67.80
2022-08-04T04:13:14.813Z,67.00
2022-08-04T04:17:05.570Z,65.60
2022-08-04T04:20:55.697Z,65.70
2022-08-04T04:25:13.919Z,65.90
2022-08-04T04:29:14.111Z,67.20
2022-08-04T04:33:37.256Z,67.30
2022-08-04T04:37:47.700Z,67.20
2022-08-04T04:42:05.059Z,67.00
2022-08-04T04:46:05.989Z,67.30
2022-08-04T04:50:34.954Z,66.80
2022-08-04T04:54:30.062Z,66.20
2022-08-04T04:58:16.873Z,66.60
2022-08-04T05:02:06.181Z,66.20
2022-08-04T05:06:22.640Z,66.20
2022-08-04T05:10:07.589Z,67.70
2022-08-04T05:14:38.330Z,66.50
2022-08-04T05:17:57.318Z,66.60
2022-08-04T05:21:49.601Z,66.70
2022-08-04T05:25:50.070Z,67.20
2022-08-04T05:30:04.433Z,68.80
2022-08-04T05:34:05.799Z,68.50
2022-08-04T05:38:01.374Z,67.90
2022-08-04T05:41:47.848Z,67.30
2022-08-04T05:45:39.157Z,67.30
2022-08-04T05:49:24.282Z,67.40
2022-08-04T05:53:08.179Z,67.60
2022-08-04T05:56:51.466Z,67.60
2022-08-04T06:00:41.270Z,67.60
2022-08-04T06:04:28.098Z,67.70
2022-08-04T06:08:13.623Z,67.80
2022-08-04T06:12:04.262Z,67.80
2022-08-04T06:15:48.588Z,67.90
2022-08-04T06:20:02.567Z,67.80
2022-08-04T06:23:55.097Z,67.90
2022-08-04T06:27:45.003Z,67.80
2022-08-04T06:32:28.233Z,67.80
2022-08-04T06:35:48.175Z,67.70
2022-08-04T06:39:32.107Z,67.90
2022-08-04T06:43:14.015Z,68.10
2022-08-04T06:46:57.649Z,68.20
2022-08-04T06:51:27.334Z,68.20
2022-08-04T06:54:43.396Z,68.20
2022-08-04T06:58:26.240Z,68.20
2022-08-04T07:02:12.693Z,68.30
2022-08-04T07:05:54.926Z,68.30
2022-08-04T07:09:36.969Z,68.30
2022-08-04T07:13:20.273Z,68.20
2022-08-04T07:17:04.964Z,68.30
2022-08-04T07:20:48.225Z,68.30
2022-08-04T07:24:34.535Z,68.30
2022-08-04T07:28:16.407Z,68.40
2022-08-04T07:31:59.537Z,68.40
2022-08-04T07:36:05.458Z,68.40
2022-08-04T07:39:48.450Z,68.20
2022-08-04T07:43:32.333Z,68.20
2022-08-04T07:47:14.518Z,67.90
2022-08-04T07:50:56.504Z,67.90
2022-08-04T07:54:40.655Z,67.70
2022-08-04T07:58:22.638Z,67.70
2022-08-04T08:02:04.625Z,67.50
2022-08-04T08:06:16.691Z,67.20
2022-08-04T08:09:48.437Z,67.00
2022-08-04T08:13:33.282Z,66.70
2022-08-04T08:17:15.248Z,66.40
2022-08-04T08:20:57.818Z,66.30
2022-08-04T08:24:39.834Z,66.20
2022-08-04T08:28:21.815Z,66.20
2022-08-04T08:32:09.008Z,66.00
2022-08-04T08:35:56.897Z,65.80
2022-08-04T08:39:45.938Z,65.70
2022-08-04T08:44:07.534Z,65.50
2022-08-04T08:48:05.711Z,65.00
2022-08-04T08:52:56.559Z,64.80
2022-08-04T08:56:40.370Z,64.30
2022-08-04T09:00:40.805Z,64.70
2022-08-04T09:04:59.221Z,63.30
2022-08-04T09:09:04.122Z,62.80
2022-08-04T09:12:53.974Z,62.60
2022-08-04T09:16:43.222Z,63.50
2022-08-04T09:20:39.687Z,63.50
2022-08-04T09:24:35.906Z,63.30
2022-08-04T09:28:51.693Z,63.40
2022-08-04T09:32:33.258Z,63.20
2022-08-04T09:36:46.072Z,62.80
2022-08-04T09:40:53.265Z,62.00
2022-08-04T09:44:55.281Z,62.50
2022-08-04T09:48:43.614Z,61.10
2022-08-04T09:52:37.736Z,61.70
2022-08-04T09:56:48.967Z,59.80
2022-08-04T10:00:40.745Z,59.10
2022-08-04T10:04:26.868Z,59.80
2022-08-04T10:08:40.737Z,59.90
2022-08-04T10:12:41.659Z,58.00
2022-08-04T10:16:52.396Z,57.80
2022-08-04T10:20:54.072Z,57.00
2022-08-04T10:24:57.626Z,58.30
2022-08-04T10:28:49.529Z,58.00
2022-08-04T10:33:03.473Z,56.00
2022-08-04T10:37:04.416Z,55.30
2022-08-04T10:40:49.907Z,55.60
2022-08-04T10:44:42.186Z,56.20
2022-08-04T10:48:40.548Z,53.50
2022-08-04T10:52:25.145Z,53.80
2022-08-04T10:56:15.343Z,54.50
2022-08-04T11:00:03.748Z,52.70
2022-08-04T11:03:56.718Z,53.20
2022-08-04T11:07:41.329Z,52.50
2022-08-04T11:12:01.742Z,53.20
2022-08-04T11:15:48.095Z,51.30
2022-08-04T11:20:31.753Z,52.90
2022-08-04T11:24:16.169Z,49.70
2022-08-04T11:28:30.429Z,50.40
2022-08-04T11:32:21.225Z,50.50
2022-08-04T11:36:22.045Z,51.40
2022-08-04T11:40:16.442Z,50.30
2022-08-04T11:44:01.815Z,48.40
2022-08-04T11:47:57.570Z,50.10
2022-08-04T11:51:41.145Z,48.10
2022-08-04T11:55:27.261Z,49.70
2022-08-04T11:59:09.174Z,49.30
2022-08-04T12:03:39.305Z,49.60
2022-08-04T12:07:41.234Z,48.50
2022-08-04T12:11:32.226Z,49.30
2022-08-04T12:15:22.689Z,48.90
2022-08-04T12:19:16.775Z,48.90
2022-08-04T12:23:01.269Z,48.30
2022-08-04T12:26:56.199Z,48.60
2022-08-04T12:30:57.732Z,47.40
2022-08-04T12:35:07.917Z,46.90
2022-08-04T12:39:09.226Z,45.90
2022-08-04T12:43:08.707Z,47.00
2022-08-04T12:46:51.330Z,45.30
2022-08-04T12:50:36.412Z,46.90
2022-08-04T12:54:28.807Z,45.80
2022-08-04T12:58:16.601Z,44.60
2022-08-04T13:02:34.064Z,45.40
2022-08-04T13:06:21.275Z,43.80
2022-08-04T13:10:18.217Z,45.00
2022-08-04T13:14:24.531Z,42.80
2022-08-04T13:18:14.761Z,44.00
2022-08-04T13:22:02.693Z,43.50
2022-08-04T13:26:42.685Z,43.10
2022-08-04T13:29:57.961Z,42.10
2022-08-04T13:33:46.701Z,42.40
2022-08-04T13:37:35.710Z,41.70
2022-08-04T13:41:19.052Z,40.60
2022-08-04T13:45:01.664Z,42.00
2022-08-04T13:48:44.859Z,41.50
2022-08-04T13:52:26.842Z,41.30
2022-08-04T13:56:10.689Z,41.50
2022-08-04T13:59:56.527Z,41.50
2022-08-04T14:04:05.050Z,41.80
2022-08-04T14:07:54.231Z,41.10
2022-08-04T14:12:06.522Z,42.10
2022-08-04T14:16:02.262Z,42.40
2022-08-04T14:19:59.137Z,41.70
2022-08-04T14:23:51.637Z,40.90
2022-08-04T14:27:45.801Z,41.60
2022-08-04T14:31:30.755Z,40.20
2022-08-04T14:35:13.364Z,41.20
2022-08-04T14:39:00.323Z,40.60
2022-08-04T14:42:43.537Z,40.40
2022-08-04T14:46:36.272Z,40.20
2022-08-04T14:50:19.103Z,39.90
2022-08-04T14:54:05.057Z,39.90
2022-08-04T14:58:33.800Z,39.90
2022-08-04T15:02:00.590Z,39.70
2022-08-04T15:05:59.877Z,39.50
2022-08-04T15:09:45.959Z,39.50
2022-08-04T15:13:28.452Z,39.40
2022-08-04T15:17:30.143Z,39.10
2022-08-04T15:21:13.623Z,38.40
2022-08-04T15:24:56.003Z,38.80
2022-08-04T15:28:40.545Z,39.00
2022-08-04T15:32:22.845Z,38.60
2022-08-04T15:36:16.460Z,38.20
2022-08-04T15:40:13.417Z,36.40
2022-08-04T15:44:16.818Z,37.00
2022-08-04T15:48:05.502Z,37.90
2022-08-04T15:51:47.965Z,37.40
2022-08-04T15:55:52.843Z,37.70
2022-08-04T16:00:06.318Z,35.70
2022-08-04T16:03:59.132Z,35.70
2022-08-04T16:07:59.869Z,37.00
2022-08-04T16:11:41.683Z,35.00
2022-08-04T16:15:41.539Z,36.60
2022-08-04T16:19:35.247Z,35.00
2022-08-04T16:23:55.101Z,34.30
2022-08-04T16:27:40.714Z,33.80
2022-08-04T16:31:22.711Z,35.20
2022-08-04T16:35:17.732Z,34.90
2022-08-04T16:39:04.722Z,34.70
2022-08-04T16:42:46.605Z,33.70
2022-08-04T16:47:08.162Z,32.60
2022-08-04T16:50:53.525Z,32.20
2022-08-04T16:54:36.940Z,33.80
2022-08-04T16:58:26.043Z,33.60
2022-08-04T17:02:09.862Z,32.40
2022-08-04T17:06:17.523Z,33.30
2022-08-04T17:10:00.121Z,30.50
2022-08-04T17:14:02.531Z,31.30
2022-08-04T17:18:04.091Z,32.30
2022-08-04T17:21:49.335Z,32.10
2022-08-04T17:25:51.810Z,32.20
2022-08-04T17:29:43.144Z,31.60
2022-08-04T17:33:55.131Z,30.40
2022-08-04T17:37:36.713Z,30.60
2022-08-04T17:41:30.147Z,30.60
2022-08-04T17:49:22.838Z,30.10
2022-08-04T17:57:22.320Z,29.60
2022-08-04T18:01:24.293Z,28.20
2022-08-04T18:05:12.209Z,29.30
2022-08-04T18:08:59.393Z,29.40
2022-08-04T18:13:14.388Z,29.10
2022-08-04T18:16:56.689Z,27.30
2022-08-04T18:20:38.565Z,29.00
2022-08-04T18:24:34.203Z,29.20
2022-08-04T18:28:26.791Z,29.30
2022-08-04T18:32:09.613Z,29.20
2022-08-04T18:36:34.012Z,29.70
2022-08-04T18:40:24.962Z,30.40
2022-08-04T18:43:58.593Z,31.10
2022-08-04T18:47:59.185Z,30.80
2022-08-04T18:51:41.566Z,30.70
2022-08-04T18:55:55.533Z,30.50
2022-08-04T18:59:33.521Z,30.40
2022-08-04T19:03:16.190Z,30.40
2022-08-04T19:07:29.319Z,30.70
2022-08-04T19:11:16.733Z,31.50
2022-08-04T19:15:11.492Z,32.40
2022-08-04T19:18:53.646Z,33.10
2022-08-04T19:24:10.978Z,33.70
2022-08-04T19:26:39.380Z,34.30
2022-08-04T19:30:21.553Z,34.80
2022-08-04T19:34:07.328Z,35.30
2022-08-04T19:37:58.230Z,35.60
2022-08-04T19:42:06.714Z,35.90
2022-08-04T19:45:47.351Z,36.30
2022-08-04T19:50:05.458Z,36.70
2022-08-04T19:53:37.315Z,37.00
2022-08-04T19:57:20.104Z,37.30
2022-08-04T20:01:31.282Z,37.60
2022-08-04T20:05:15.527Z,37.90
2022-08-04T20:08:58.387Z,38.20
2022-08-04T20:12:42.198Z,38.50
2022-08-04T20:16:29.785Z,38.90
2022-08-04T20:20:13.363Z,39.20
2022-08-04T20:23:56.755Z,39.60
2022-08-04T20:27:59.985Z,39.90
2022-08-04T20:31:43.392Z,40.20
2022-08-04T20:35:26.759Z,40.60
2022-08-04T20:39:09.619Z,40.70
2022-08-04T20:42:51.810Z,40.90
2022-08-04T20:46:33.915Z,41.10
2022-08-04T20:50:17.549Z,41.30
2022-08-04T20:54:16.313Z,41.50
2022-08-04T20:58:03.054Z,41.70
2022-08-04T21:01:49.436Z,42.00
2022-08-04T21:05:35.428Z,42.20
2022-08-04T21:09:37.162Z,42.40
2022-08-04T21:13:19.011Z,42.60
2022-08-04T21:17:07.154Z,42.70
2022-08-04T21:20:49.888Z,42.90
2022-08-04T21:24:36.673Z,43.10
2022-08-04T21:32:20.241Z,43.50
2022-08-04T21:36:10.109Z,43.60
2022-08-04T21:39:59.360Z,43.80
2022-08-04T21:43:56.149Z,44.00
2022-08-04T21:47:46.630Z,44.10
2022-08-04T21:52:00.245Z,44.20
2022-08-04T21:56:05.696Z,44.50
2022-08-04T21:59:45.202Z,44.60
2022-08-04T22:03:52.485Z,44.70
2022-08-04T22:07:50.459Z,45.50
2022-08-04T22:19:50.771Z,44.80
2022-08-04T22:23:45.229Z,44.90
2022-08-04T22:27:47.852Z,44.80
2022-08-04T22:31:55.566Z,44.80
2022-08-04T22:35:49.384Z,44.70
2022-08-04T22:39:31.658Z,44.70
2022-08-04T22:43:31.879Z,44.70
2022-08-04T22:47:20.646Z,44.60
2022-08-04T22:51:07.031Z,44.60
2022-08-04T22:54:49.012Z,44.70
2022-08-04T22:58:30.879Z,44.70
2022-08-04T23:02:14.640Z,44.70
2022-08-04T23:05:56.530Z,44.70
2022-08-04T23:09:50.093Z,44.60
2022-08-04T23:13:33.047Z,44.60
2022-08-04T23:17:14.942Z,44.50
2022-08-04T23:20:57.434Z,44.60
2022-08-04T23:24:39.251Z,44.60
2022-08-04T23:28:22.966Z,44.60
2022-08-04T23:32:06.101Z,44.60
2022-08-04T23:35:47.928Z,44.60
2022-08-04T23:40:03.301Z,44.50
2022-08-04T23:43:49.300Z,44.40
2022-08-04T23:48:18.780Z,44.40
2022-08-04T23:51:35.243Z,44.40
2022-08-04T23:55:18.992Z,44.50
2022-08-04T23:59:03.858Z,44.70
